createdAt,value
2023-03-07T00:00:12.800Z,99877.63
2023-03-07T00:02:14.901Z,99874.22
2023-03-07T00:04:17.102Z,99872.44
2023-03-07T00:06:19.241Z,99874.97
2023-03-07T00:08:21.299Z,99868.75
2023-03-07T00:10:23.371Z,99870.69
2023-03-07T00:12:25.688Z,99865.69
2023-03-07T00:14:27.836Z,99858.88
2023-03-07T00:16:29.973Z,99850.88
2023-03-07T00:18:32.879Z,99851.00
2023-03-07T00:20:34.928Z,99849.38
2023-03-07T00:22:37.811Z,99850.22
2023-03-07T00:24:40.009Z,99847.47
2023-03-07T00:26:42.148Z,99853.25
2023-03-07T00:28:47.426Z,99844.72
2023-03-07T00:30:49.498Z,99851.69
2023-03-07T00:32:51.453Z,99838.84
2023-03-07T00:34:54.776Z,99845.72
2023-03-07T00:36:56.892Z,99833.75
2023-03-07T00:38:59.081Z,99831.41
2023-03-07T00:41:05.317Z,99835.63
2023-03-07T00:43:07.301Z,99838.09
2023-03-07T00:45:11.064Z,99832.88
2023-03-07T00:47:13.183Z,99827.88
2023-03-07T00:49:15.349Z,99830.44
2023-03-07T00:51:19.129Z,99831.28
2023-03-07T00:53:21.842Z,99826.16
2023-03-07T00:55:23.854Z,99819.16
2023-03-07T00:57:25.921Z,99819.28
2023-03-07T00:59:29.448Z,99821.03
2023-03-07T01:01:31.622Z,99812.38
2023-03-07T01:03:34.645Z,99809.91
2023-03-07T01:05:40.205Z,99804.06
2023-03-07T01:07:42.406Z,99808.22
2023-03-07T01:09:44.454Z,99803.88
2023-03-07T01:11:46.524Z,99800.47
2023-03-07T01:13:48.715Z,99807.09
2023-03-07T01:15:50.803Z,99793.50
2023-03-07T01:17:52.811Z,99798.75
2023-03-07T01:19:54.870Z,99791.00
2023-03-07T01:21:57.028Z,99791.09
2023-03-07T01:23:59.277Z,99791.94
2023-03-07T01:26:01.380Z,99792.03
2023-03-07T01:28:04.255Z,99786.91
2023-03-07T01:30:07.616Z,99799.00
2023-03-07T01:32:09.824Z,99794.78
2023-03-07T01:34:12.144Z,99784.41
2023-03-07T01:36:19.514Z,99773.22
2023-03-07T01:38:21.660Z,99788.72
2023-03-07T01:40:25.195Z,99780.91
2023-03-07T01:42:30.940Z,99779.88
2023-03-07T01:44:55.860Z,99784.06
2023-03-07T01:47:00.773Z,99782.16
2023-03-07T01:49:09.817Z,99780.34
2023-03-07T01:51:12.130Z,99787.97
2023-03-07T01:53:15.984Z,99786.72
2023-03-07T01:55:23.070Z,99784.25
2023-03-07T01:57:31.632Z,99782.44
2023-03-07T01:59:37.316Z,99787.38
2023-03-07T02:01:39.863Z,99788.94
2023-03-07T02:03:45.337Z,99794.97
2023-03-07T02:05:53.564Z,99789.72
2023-03-07T02:07:58.989Z,99796.50
2023-03-07T02:10:02.214Z,99791.94
2023-03-07T02:12:04.937Z,99802.16
2023-03-07T02:14:07.148Z,99785.88
2023-03-07T02:16:09.694Z,99789.84
2023-03-07T02:18:16.150Z,99794.97
2023-03-07T02:20:24.453Z,99784.53
2023-03-07T02:22:27.593Z,99785.22
2023-03-07T02:24:37.343Z,99785.69
2023-03-07T02:26:44.459Z,99781.47
2023-03-07T02:28:48.250Z,99788.19
2023-03-07T02:30:55.798Z,99783.09
2023-03-07T02:32:57.953Z,99790.75
2023-03-07T02:35:00.009Z,99795.75
2023-03-07T02:37:05.242Z,99796.63
2023-03-07T02:39:07.297Z,99781.94
2023-03-07T02:41:12.142Z,99784.28
2023-03-07T02:43:14.646Z,99786.50
2023-03-07T02:45:19.482Z,99786.56
2023-03-07T02:47:21.536Z,99778.03
2023-03-07T02:49:23.874Z,99780.63
2023-03-07T02:51:25.902Z,99786.53
2023-03-07T02:53:28.549Z,99781.38
2023-03-07T02:55:31.075Z,99782.38
2023-03-07T02:57:33.318Z,99780.59
2023-03-07T02:59:35.326Z,99780.59
2023-03-07T03:01:37.600Z,99783.19
2023-03-07T03:03:39.822Z,99777.09
2023-03-07T03:05:41.884Z,99781.41
2023-03-07T03:07:43.938Z,99785.56
2023-03-07T03:09:46.093Z,99783.84
2023-03-07T03:11:48.253Z,99777.00
2023-03-07T03:13:50.350Z,99783.75
2023-03-07T03:15:56.938Z,99784.63
2023-03-07T03:17:59.101Z,99784.59
2023-03-07T03:20:01.218Z,99782.13
2023-03-07T03:22:03.873Z,99778.75
2023-03-07T03:24:08.189Z,99787.41
2023-03-07T03:26:11.800Z,99792.31
2023-03-07T03:28:13.807Z,99790.63
2023-03-07T03:30:16.231Z,99788.03
2023-03-07T03:32:18.241Z,99791.38
2023-03-07T03:34:20.487Z,99789.56
2023-03-07T03:36:26.520Z,99793.72
2023-03-07T03:38:28.542Z,99794.22
2023-03-07T03:40:31.562Z,99786.66
2023-03-07T03:42:33.632Z,99785.69
2023-03-07T03:44:35.778Z,99785.59
2023-03-07T03:46:38.277Z,99786.44
2023-03-07T03:48:41.014Z,99785.41
2023-03-07T03:50:43.119Z,99784.34
2023-03-07T03:52:45.473Z,99785.84
2023-03-07T03:54:47.425Z,99777.50
2023-03-07T03:56:49.473Z,99775.91
2023-03-07T03:58:53.987Z,99775.59
2023-03-07T04:00:56.447Z,99782.53
2023-03-07T04:02:58.649Z,99775.78
2023-03-07T04:05:00.838Z,99772.34
2023-03-07T04:07:04.894Z,99779.09
2023-03-07T04:09:07.115Z,99782.53
2023-03-07T04:11:09.373Z,99771.38
2023-03-07T04:13:11.467Z,99774.72
2023-03-07T04:15:13.625Z,99767.06
2023-03-07T04:17:15.657Z,99769.56
2023-03-07T04:19:18.476Z,99771.13
2023-03-07T04:21:21.756Z,99764.22
2023-03-07T04:23:25.141Z,99770.03
2023-03-07T04:25:27.264Z,99764.06
2023-03-07T04:27:29.633Z,99761.44
2023-03-07T04:29:31.833Z,99753.84
2023-03-07T04:31:33.990Z,99753.91
2023-03-07T04:33:36.089Z,99761.53
2023-03-07T04:35:38.294Z,99758.94
2023-03-07T04:37:40.389Z,99759.66
2023-03-07T04:39:42.458Z,99758.81
2023-03-07T04:41:44.937Z,99758.09
2023-03-07T04:43:47.057Z,99751.09
2023-03-07T04:45:49.124Z,99752.59
2023-03-07T04:47:51.160Z,99753.44
2023-03-07T04:49:53.849Z,99761.25
2023-03-07T04:51:56.013Z,99760.34
2023-03-07T04:53:58.073Z,99760.34
2023-03-07T04:56:01.685Z,99763.94
2023-03-07T04:58:04.201Z,99757.97
2023-03-07T05:00:09.559Z,99761.44
2023-03-07T05:02:13.797Z,99760.72
2023-03-07T05:04:15.929Z,99758.88
2023-03-07T05:06:18.025Z,99758.88
2023-03-07T05:08:20.999Z,99763.91
2023-03-07T05:10:22.983Z,99758.06
2023-03-07T05:12:25.735Z,99754.59
2023-03-07T05:14:27.790Z,99752.91
2023-03-07T05:16:30.239Z,99757.16
2023-03-07T05:18:32.348Z,99753.72
2023-03-07T05:20:34.862Z,99755.31
2023-03-07T05:22:37.243Z,99751.09
2023-03-07T05:24:39.431Z,99760.56
2023-03-07T05:26:41.756Z,99753.84
2023-03-07T05:28:43.770Z,99758.94
2023-03-07T05:30:47.308Z,99749.63
2023-03-07T05:32:49.860Z,99748.91
2023-03-07T05:34:52.064Z,99752.19
2023-03-07T05:36:54.141Z,99760.72
2023-03-07T05:38:57.258Z,99759.84
2023-03-07T05:40:59.419Z,99750.50
2023-03-07T05:43:01.527Z,99751.38
2023-03-07T05:45:04.456Z,99750.56
2023-03-07T05:47:06.666Z,99753.03
2023-03-07T05:49:09.455Z,99747.94
2023-03-07T05:51:11.534Z,99747.28
2023-03-07T05:53:13.575Z,99735.19
2023-03-07T05:55:16.010Z,99740.13
2023-03-07T05:57:18.017Z,99740.03
2023-03-07T05:59:20.103Z,99753.63
2023-03-07T06:01:22.229Z,99752.09
2023-03-07T06:03:24.246Z,99753.78
2023-03-07T06:05:26.221Z,99753.78
2023-03-07T06:07:28.307Z,99750.41
2023-03-07T06:09:30.312Z,99755.69
2023-03-07T06:11:33.589Z,99750.66
2023-03-07T06:13:35.641Z,99748.13
2023-03-07T06:15:37.613Z,99744.75
2023-03-07T06:17:40.762Z,99735.41
2023-03-07T06:19:42.877Z,99733.63
2023-03-07T06:21:45.027Z,99721.75
2023-03-07T06:23:47.181Z,99729.50
2023-03-07T06:25:49.417Z,99725.06
2023-03-07T06:27:51.709Z,99727.97
2023-03-07T06:29:54.022Z,99728.03
2023-03-07T06:31:56.314Z,99728.22
2023-03-07T06:33:58.473Z,99724.06
2023-03-07T06:36:00.713Z,99735.09
2023-03-07T06:38:03.127Z,99728.44
2023-03-07T06:40:06.660Z,99729.94
2023-03-07T06:42:09.334Z,99722.34
2023-03-07T06:44:11.425Z,99725.84
2023-03-07T06:46:13.604Z,99728.34
2023-03-07T06:48:15.790Z,99729.34
2023-03-07T06:50:26.436Z,99724.34
2023-03-07T06:52:32.368Z,99736.31
2023-03-07T06:54:34.433Z,99731.97
2023-03-07T06:56:36.726Z,99737.84
2023-03-07T06:58:39.040Z,99740.53
2023-03-07T07:00:41.178Z,99744.75
2023-03-07T07:02:43.478Z,99741.31
2023-03-07T07:04:45.759Z,99739.59
2023-03-07T07:06:48.125Z,99731.44
2023-03-07T07:08:50.265Z,99736.59
2023-03-07T07:10:53.039Z,99741.47
2023-03-07T07:12:56.861Z,99742.34
2023-03-07T07:15:02.410Z,99743.91
2023-03-07T07:17:04.623Z,99741.53
2023-03-07T07:19:06.966Z,99735.72
2023-03-07T07:21:09.229Z,99743.38
2023-03-07T07:23:11.472Z,99734.06
2023-03-07T07:25:13.807Z,99742.72
2023-03-07T07:27:20.090Z,99747.00
2023-03-07T07:29:23.094Z,99741.97
2023-03-07T07:31:25.244Z,99746.25
2023-03-07T07:33:27.916Z,99756.44
2023-03-07T07:35:29.946Z,99746.34
2023-03-07T07:37:32.119Z,99744.69
2023-03-07T07:39:56.196Z,99746.38
2023-03-07T07:41:58.150Z,99747.06
2023-03-07T07:44:00.771Z,99748.72
2023-03-07T07:46:05.451Z,99750.59
2023-03-07T07:48:10.052Z,99753.16
2023-03-07T07:50:14.343Z,99748.19
2023-03-07T07:52:18.479Z,99756.38
2023-03-07T07:54:20.610Z,99754.09
2023-03-07T07:56:23.959Z,99754.81
2023-03-07T07:58:26.608Z,99753.25
2023-03-07T08:00:29.481Z,99756.44
2023-03-07T08:02:31.836Z,99760.50
2023-03-07T08:04:35.881Z,99761.41
2023-03-07T08:06:38.267Z,99757.28
2023-03-07T08:08:40.920Z,99761.63
2023-03-07T08:10:44.583Z,99765.84
2023-03-07T08:12:53.481Z,99770.03
2023-03-07T08:14:55.935Z,99771.53
2023-03-07T08:16:58.281Z,99775.19
2023-03-07T08:19:01.408Z,99766.75
2023-03-07T08:21:03.722Z,99768.94
2023-03-07T08:23:06.120Z,99775.03
2023-03-07T08:25:16.188Z,99771.63
2023-03-07T08:27:18.655Z,99769.06
2023-03-07T08:29:21.237Z,99763.34
2023-03-07T08:31:25.457Z,99765.84
2023-03-07T08:33:27.798Z,99754.97
2023-03-07T08:35:31.666Z,99760.22
2023-03-07T08:37:36.607Z,99759.56
2023-03-07T08:39:39.164Z,99761.31
2023-03-07T08:41:41.966Z,99761.34
2023-03-07T08:43:44.335Z,99775.78
2023-03-07T08:45:46.812Z,99769.81
2023-03-07T08:47:49.453Z,99769.72
2023-03-07T08:49:51.848Z,99765.47
2023-03-07T08:51:54.499Z,99765.69
2023-03-07T08:53:59.663Z,99768.53
2023-03-07T08:56:06.609Z,99773.78
2023-03-07T08:58:09.402Z,99776.44
2023-03-07T09:00:13.014Z,99775.56
2023-03-07T09:02:18.760Z,99779.06
2023-03-07T09:04:21.701Z,99778.22
2023-03-07T09:06:24.524Z,99782.06
2023-03-07T09:08:27.474Z,99773.63
2023-03-07T09:10:30.620Z,99776.06
2023-03-07T09:12:36.718Z,99778.06
2023-03-07T09:14:39.492Z,99777.22
2023-03-07T09:16:41.916Z,99778.25
2023-03-07T09:18:44.683Z,99780.03
2023-03-07T09:20:47.072Z,99769.81
2023-03-07T09:22:52.378Z,99778.16
2023-03-07T09:24:57.199Z,99774.81
2023-03-07T09:27:00.035Z,99776.38
2023-03-07T09:29:02.307Z,99774.00
2023-03-07T09:31:09.135Z,99771.47
2023-03-07T09:33:12.039Z,99771.50
2023-03-07T09:35:14.763Z,99775.50
2023-03-07T09:37:20.294Z,99776.59
2023-03-07T09:39:22.678Z,99776.53
2023-03-07T09:41:34.289Z,99776.75
2023-03-07T09:43:45.248Z,99790.44
2023-03-07T09:45:56.664Z,99787.94
2023-03-07T09:47:59.801Z,99782.88
2023-03-07T09:50:04.325Z,99780.44
2023-03-07T09:52:16.009Z,99777.13
2023-03-07T09:54:27.942Z,99783.94
2023-03-07T09:56:38.600Z,99773.69
2023-03-07T09:58:45.496Z,99768.75
2023-03-07T10:00:54.365Z,99768.78
2023-03-07T10:03:00.620Z,99765.41
2023-03-07T10:05:09.218Z,99767.91
2023-03-07T10:07:15.886Z,99771.44
2023-03-07T10:09:22.674Z,99767.38
2023-03-07T10:11:46.787Z,99761.44
2023-03-07T10:13:59.084Z,99754.63
2023-03-07T10:16:10.561Z,99762.41
2023-03-07T10:18:16.626Z,99754.06
2023-03-07T10:20:25.202Z,99758.25
2023-03-07T10:22:36.040Z,99751.66
2023-03-07T10:24:43.642Z,99750.00
2023-03-07T10:26:58.167Z,99751.84
2023-03-07T10:29:09.497Z,99752.00
2023-03-07T10:31:21.354Z,99755.19
2023-03-07T10:33:25.232Z,99763.16
2023-03-07T10:35:34.279Z,99756.31
2023-03-07T10:37:44.305Z,99763.13
2023-03-07T10:39:52.464Z,99758.84
2023-03-07T10:41:55.789Z,99763.13
2023-03-07T10:43:58.918Z,99763.00
2023-03-07T10:46:22.359Z,99763.16
2023-03-07T10:48:28.811Z,99759.03
2023-03-07T10:50:36.525Z,99759.09
2023-03-07T10:52:43.368Z,99767.59
2023-03-07T10:54:45.785Z,99756.59
2023-03-07T10:57:03.004Z,99755.13
2023-03-07T10:59:10.040Z,99759.34
2023-03-07T11:01:16.817Z,99760.25
2023-03-07T11:03:25.955Z,99762.09
2023-03-07T11:05:32.994Z,99761.28
2023-03-07T11:07:36.840Z,99762.00
2023-03-07T11:09:47.913Z,99772.09
2023-03-07T11:11:51.156Z,99764.53
2023-03-07T11:13:59.718Z,99776.56
2023-03-07T11:16:12.025Z,99777.53
2023-03-07T11:18:20.748Z,99772.53
2023-03-07T11:20:25.850Z,99768.31
2023-03-07T11:22:34.429Z,99782.03
2023-03-07T11:24:40.266Z,99783.69
2023-03-07T11:26:42.524Z,99781.84
2023-03-07T11:28:45.000Z,99786.16
2023-03-07T11:30:54.126Z,99788.69
2023-03-07T11:33:03.844Z,99793.75
2023-03-07T11:35:15.784Z,99791.28
2023-03-07T11:37:23.714Z,99787.72
2023-03-07T11:39:38.954Z,99790.38
2023-03-07T11:41:46.178Z,99794.38
2023-03-07T11:43:54.675Z,99801.31
2023-03-07T11:46:08.098Z,99792.78
2023-03-07T11:48:21.237Z,99803.97
2023-03-07T11:50:30.284Z,99803.31
2023-03-07T11:52:34.277Z,99801.44
2023-03-07T11:54:46.661Z,99799.88
2023-03-07T11:56:54.574Z,99804.31
2023-03-07T11:59:08.105Z,99812.00
2023-03-07T12:01:12.942Z,99804.38
2023-03-07T12:03:25.409Z,99802.75
2023-03-07T12:05:31.568Z,99804.53
2023-03-07T12:07:37.256Z,99803.00
2023-03-07T12:09:45.778Z,99805.63
2023-03-07T12:11:54.857Z,99798.72
2023-03-07T12:14:03.787Z,99796.19
2023-03-07T12:16:11.702Z,99800.50
2023-03-07T12:18:17.560Z,99798.22
2023-03-07T12:20:28.541Z,99796.38
2023-03-07T12:22:37.230Z,99797.44
2023-03-07T12:24:46.039Z,99796.53
2023-03-07T12:26:57.238Z,99800.88
2023-03-07T12:29:04.265Z,99797.44
2023-03-07T12:31:11.404Z,99798.31
2023-03-07T12:33:27.058Z,99797.47
2023-03-07T12:35:42.601Z,99799.00
2023-03-07T12:37:52.932Z,99795.72
2023-03-07T12:40:02.735Z,99796.66
2023-03-07T12:42:15.403Z,99805.13
2023-03-07T12:44:33.644Z,99807.72
2023-03-07T12:46:43.803Z,99805.97
2023-03-07T12:48:54.099Z,99808.53
2023-03-07T12:51:05.100Z,99806.16
2023-03-07T12:53:13.941Z,99802.84
2023-03-07T12:55:25.206Z,99800.28
2023-03-07T12:57:34.521Z,99808.00
2023-03-07T12:59:43.248Z,99809.00
2023-03-07T13:02:01.817Z,99807.31
2023-03-07T13:04:15.081Z,99807.97
2023-03-07T13:06:23.333Z,99814.28
2023-03-07T13:08:28.859Z,99816.69
2023-03-07T13:10:32.291Z,99812.44
2023-03-07T13:12:37.358Z,99814.31
2023-03-07T13:14:45.640Z,99820.31
2023-03-07T13:16:48.451Z,99817.59
2023-03-07T13:18:53.115Z,99826.94
2023-03-07T13:21:07.409Z,99828.63
2023-03-07T13:23:21.475Z,99825.81
2023-03-07T13:25:27.076Z,99825.81
2023-03-07T13:27:44.830Z,99825.63
2023-03-07T13:29:53.879Z,99841.34
2023-03-07T13:31:59.451Z,99843.59
2023-03-07T13:34:24.838Z,99839.25
2023-03-07T13:36:34.960Z,99840.06
2023-03-07T13:38:40.923Z,99840.81
2023-03-07T13:40:45.103Z,99854.09
2023-03-07T13:42:52.520Z,99858.31
2023-03-07T13:44:57.179Z,99859.81
2023-03-07T13:47:01.715Z,99858.06
2023-03-07T13:49:04.217Z,99861.16
2023-03-07T13:51:09.405Z,99865.44
2023-03-07T13:53:17.384Z,99862.97
2023-03-07T13:55:26.022Z,99861.16
2023-03-07T13:57:37.731Z,99855.78
2023-03-07T13:59:49.861Z,99846.41
2023-03-07T14:01:58.585Z,99854.69
2023-03-07T14:04:07.392Z,99866.72
2023-03-07T14:06:17.700Z,99864.88
2023-03-07T14:08:26.963Z,99866.38
2023-03-07T14:10:31.770Z,99876.53
2023-03-07T14:12:45.641Z,99879.72
2023-03-07T14:14:57.623Z,99878.06
2023-03-07T14:17:06.449Z,99880.66
2023-03-07T14:19:13.662Z,99878.72
2023-03-07T14:21:20.527Z,99872.56
2023-03-07T14:23:31.716Z,99879.41
2023-03-07T14:25:38.722Z,99875.22
2023-03-07T14:27:47.302Z,99877.81
2023-03-07T14:29:54.786Z,99884.59
2023-03-07T14:31:59.643Z,99884.72
2023-03-07T14:34:04.366Z,99880.47
2023-03-07T14:36:13.117Z,99888.88
2023-03-07T14:38:21.717Z,99883.81
2023-03-07T14:40:30.840Z,99896.59
2023-03-07T14:42:36.521Z,99884.78
2023-03-07T14:44:47.404Z,99884.03
2023-03-07T14:46:52.759Z,99882.22
2023-03-07T14:49:01.548Z,99879.72
2023-03-07T14:51:16.674Z,99886.56
2023-03-07T14:53:26.278Z,99888.13
2023-03-07T14:55:36.577Z,99886.34
2023-03-07T14:57:46.291Z,99880.47
2023-03-07T14:59:54.658Z,99878.06
2023-03-07T15:01:58.899Z,99866.81
2023-03-07T15:04:02.879Z,99877.03
2023-03-07T15:06:14.285Z,99884.66
2023-03-07T15:08:21.641Z,99878.00
2023-03-07T15:10:30.513Z,99886.25
2023-03-07T15:12:33.671Z,99877.00
2023-03-07T15:14:46.985Z,99875.28
2023-03-07T15:16:57.313Z,99872.66
2023-03-07T15:19:04.561Z,99872.81
2023-03-07T15:21:12.729Z,99874.47
2023-03-07T15:23:22.514Z,99869.41
2023-03-07T15:25:26.201Z,99869.50
2023-03-07T15:27:31.776Z,99866.09
2023-03-07T15:29:34.584Z,99869.47
2023-03-07T15:31:42.986Z,99878.13
2023-03-07T15:33:45.189Z,99870.31
2023-03-07T15:36:09.653Z,99870.97
2023-03-07T15:38:19.152Z,99871.69
2023-03-07T15:40:22.595Z,99867.44
2023-03-07T15:42:24.890Z,99870.06
2023-03-07T15:44:27.200Z,99869.81
2023-03-07T15:46:31.910Z,99872.91
2023-03-07T15:48:43.412Z,99871.41
2023-03-07T15:50:54.137Z,99877.47
2023-03-07T15:53:06.636Z,99881.91
2023-03-07T15:55:19.083Z,99883.66
2023-03-07T15:57:25.908Z,99878.66
2023-03-07T15:59:34.096Z,99882.13
2023-03-07T16:01:36.613Z,99875.28
2023-03-07T16:03:49.669Z,99876.06
2023-03-07T16:05:52.697Z,99878.69
2023-03-07T16:07:57.260Z,99887.34
2023-03-07T16:10:01.946Z,99880.59
2023-03-07T16:12:05.881Z,99875.59
2023-03-07T16:14:22.574Z,99886.59
2023-03-07T16:16:28.933Z,99876.38
2023-03-07T16:18:35.176Z,99883.88
2023-03-07T16:20:37.409Z,99878.66
2023-03-07T16:22:39.620Z,99880.09
2023-03-07T16:24:42.758Z,99871.75
2023-03-07T16:26:47.008Z,99882.13
2023-03-07T16:28:52.763Z,99875.50
2023-03-07T16:30:57.940Z,99875.66
2023-03-07T16:33:00.443Z,99876.53
2023-03-07T16:35:02.743Z,99880.00
2023-03-07T16:37:07.476Z,99884.34
2023-03-07T16:39:11.319Z,99883.66
2023-03-07T16:41:17.982Z,99881.97
2023-03-07T16:43:24.241Z,99876.81
2023-03-07T16:45:28.994Z,99876.81
2023-03-07T16:47:31.650Z,99882.03
2023-03-07T16:49:33.960Z,99888.06
2023-03-07T16:51:36.279Z,99891.56
2023-03-07T16:53:38.829Z,99890.72
2023-03-07T16:55:41.718Z,99894.03
2023-03-07T16:57:48.779Z,99890.72
2023-03-07T16:59:51.801Z,99889.03
2023-03-07T17:01:55.128Z,99879.38
2023-03-07T17:03:57.922Z,99882.13
2023-03-07T17:06:00.751Z,99884.53
2023-03-07T17:08:03.187Z,99889.66
2023-03-07T17:10:08.565Z,99891.50
2023-03-07T17:12:11.873Z,99900.88
2023-03-07T17:14:16.577Z,99905.84
2023-03-07T17:16:20.696Z,99904.91
2023-03-07T17:18:23.762Z,99907.34
2023-03-07T17:20:26.843Z,99903.84
2023-03-07T17:22:31.967Z,99898.56
2023-03-07T17:24:34.943Z,99902.47
2023-03-07T17:26:43.422Z,99895.91
2023-03-07T17:28:46.876Z,99900.22
2023-03-07T17:30:50.422Z,99898.66
2023-03-07T17:32:53.684Z,99902.94
2023-03-07T17:34:55.962Z,99902.69
2023-03-07T17:37:00.607Z,99897.59
2023-03-07T17:39:03.079Z,99898.50
2023-03-07T17:41:08.402Z,99905.22
2023-03-07T17:43:18.957Z,99900.13
2023-03-07T17:45:23.159Z,99899.41
2023-03-07T17:47:27.812Z,99901.97
2023-03-07T17:49:35.932Z,99905.31
2023-03-07T17:51:39.835Z,99904.25
2023-03-07T17:53:45.911Z,99910.97
2023-03-07T17:55:50.308Z,99902.50
2023-03-07T17:57:53.091Z,99904.97
2023-03-07T17:59:56.681Z,99910.72
2023-03-07T18:01:59.391Z,99908.06
2023-03-07T18:04:06.638Z,99908.88
2023-03-07T18:06:09.329Z,99909.69
2023-03-07T18:08:14.598Z,99911.41
2023-03-07T18:10:17.668Z,99912.28
2023-03-07T18:12:26.512Z,99916.59
2023-03-07T18:14:32.757Z,99909.81
2023-03-07T18:16:38.036Z,99907.25
2023-03-07T18:18:57.770Z,99913.13
2023-03-07T18:21:07.025Z,99910.63
2023-03-07T18:23:09.733Z,99907.19
2023-03-07T18:25:15.913Z,99910.63
2023-03-07T18:27:18.772Z,99911.47
2023-03-07T18:29:23.333Z,99915.66
2023-03-07T18:31:29.001Z,99916.59
2023-03-07T18:33:32.774Z,99920.78
2023-03-07T18:35:37.869Z,99918.41
2023-03-07T18:37:40.379Z,99921.84
2023-03-07T18:39:43.148Z,99917.69
2023-03-07T18:41:45.597Z,99923.59
2023-03-07T18:43:48.606Z,99922.09
2023-03-07T18:45:51.338Z,99921.06
2023-03-07T18:47:54.203Z,99924.44
2023-03-07T18:49:58.034Z,99912.28
2023-03-07T18:52:00.573Z,99914.41
2023-03-07T18:54:04.107Z,99917.03
2023-03-07T18:56:08.598Z,99913.59
2023-03-07T18:58:11.236Z,99920.41
2023-03-07T19:00:16.575Z,99916.22
2023-03-07T19:02:19.260Z,99909.91
2023-03-07T19:04:21.963Z,99908.47
2023-03-07T19:06:26.268Z,99913.44
2023-03-07T19:08:29.045Z,99909.25
2023-03-07T19:10:35.151Z,99906.78
2023-03-07T19:12:41.870Z,99910.91
2023-03-07T19:14:44.751Z,99915.91
2023-03-07T19:16:49.750Z,99912.44
2023-03-07T19:18:54.298Z,99908.25
2023-03-07T19:20:59.127Z,99908.09
2023-03-07T19:23:02.397Z,99917.56
2023-03-07T19:25:07.021Z,99909.16
2023-03-07T19:27:10.386Z,99916.59
2023-03-07T19:29:14.090Z,99917.19
2023-03-07T19:31:19.845Z,99917.44
2023-03-07T19:33:25.553Z,99912.31
2023-03-07T19:35:29.622Z,99918.97
2023-03-07T19:37:32.898Z,99911.31
2023-03-07T19:39:37.820Z,99908.75
2023-03-07T19:41:41.079Z,99901.88
2023-03-07T19:43:43.429Z,99905.09
2023-03-07T19:45:45.655Z,99897.38
2023-03-07T19:47:50.943Z,99892.22
2023-03-07T19:49:53.343Z,99896.78
2023-03-07T19:51:56.352Z,99891.66
2023-03-07T19:53:59.301Z,99895.88
2023-03-07T19:56:09.498Z,99895.28
2023-03-07T19:58:12.292Z,99897.84
2023-03-07T20:00:15.792Z,99889.09
2023-03-07T20:02:21.372Z,99895.81
2023-03-07T20:04:28.585Z,99898.44
2023-03-07T20:06:32.964Z,99899.28
2023-03-07T20:08:36.630Z,99893.28
2023-03-07T20:10:41.122Z,99900.09
2023-03-07T20:12:45.050Z,99894.13
2023-03-07T20:14:48.994Z,99904.38
2023-03-07T20:16:53.043Z,99902.16
2023-03-07T20:18:57.698Z,99901.56
2023-03-07T20:21:06.234Z,99902.41
2023-03-07T20:23:11.361Z,99898.09
2023-03-07T20:25:15.598Z,99895.47
2023-03-07T20:27:22.568Z,99886.38
2023-03-07T20:29:25.534Z,99892.44
2023-03-07T20:31:28.066Z,99898.28
2023-03-07T20:33:30.560Z,99894.75
2023-03-07T20:35:33.386Z,99895.19
2023-03-07T20:37:36.264Z,99890.88
2023-03-07T20:39:43.756Z,99888.41
2023-03-07T20:41:45.851Z,99885.09
2023-03-07T20:43:48.929Z,99882.66
2023-03-07T20:45:50.911Z,99880.88
2023-03-07T20:47:53.163Z,99878.13
2023-03-07T20:49:55.285Z,99873.88
2023-03-07T20:51:57.309Z,99872.72
2023-03-07T20:54:02.813Z,99867.06
2023-03-07T20:56:06.375Z,99869.13
2023-03-07T20:58:08.475Z,99862.59
2023-03-07T21:00:11.754Z,99859.72
2023-03-07T21:02:13.758Z,99858.84
2023-03-07T21:04:18.581Z,99849.47
2023-03-07T21:06:23.410Z,99851.19
2023-03-07T21:08:26.689Z,99843.19
2023-03-07T21:10:29.042Z,99838.19
2023-03-07T21:12:31.119Z,99837.75
2023-03-07T21:14:33.067Z,99834.50
2023-03-07T21:16:35.028Z,99830.97
2023-03-07T21:18:38.606Z,99824.97
2023-03-07T21:20:41.840Z,99824.66
2023-03-07T21:22:47.326Z,99832.59
2023-03-07T21:24:51.129Z,99833.53
2023-03-07T21:26:54.257Z,99829.28
2023-03-07T21:28:59.899Z,99824.16
2023-03-07T21:31:05.887Z,99819.00
2023-03-07T21:33:08.021Z,99831.19
2023-03-07T21:35:12.654Z,99825.91
2023-03-07T21:37:16.317Z,99824.19
2023-03-07T21:39:18.881Z,99828.28
2023-03-07T21:41:26.112Z,99818.75
2023-03-07T21:43:29.197Z,99821.97
2023-03-07T21:45:33.749Z,99820.63
2023-03-07T21:47:38.386Z,99814.50
2023-03-07T21:49:41.137Z,99818.66
2023-03-07T21:51:44.390Z,99817.81
2023-03-07T21:53:46.531Z,99816.91
2023-03-07T21:55:54.967Z,99818.13
2023-03-07T21:57:56.956Z,99813.59
2023-03-07T22:00:00.214Z,99812.88
2023-03-07T22:02:02.633Z,99814.66
2023-03-07T22:04:04.498Z,99819.09
2023-03-07T22:06:08.430Z,99818.88
2023-03-07T22:08:10.718Z,99819.03
2023-03-07T22:10:12.605Z,99821.47
2023-03-07T22:12:14.566Z,99815.91
2023-03-07T22:14:16.412Z,99805.69
2023-03-07T22:16:21.632Z,99809.59
2023-03-07T22:18:25.930Z,99817.53
2023-03-07T22:20:27.983Z,99799.09
2023-03-07T22:22:29.946Z,99797.91
2023-03-07T22:24:32.420Z,99790.94
2023-03-07T22:26:34.322Z,99790.75
2023-03-07T22:28:36.817Z,99785.75
2023-03-07T22:30:38.792Z,99789.84
2023-03-07T22:32:43.713Z,99784.31
2023-03-07T22:34:45.612Z,99771.28
2023-03-07T22:36:51.323Z,99781.59
2023-03-07T22:38:55.457Z,99778.47
2023-03-07T22:41:01.567Z,99774.31
2023-03-07T22:43:03.525Z,99774.22
2023-03-07T22:45:06.259Z,99771.56
2023-03-07T22:47:08.308Z,99769.00
2023-03-07T22:49:11.248Z,99762.28
2023-03-07T22:51:15.409Z,99761.25
2023-03-07T22:53:17.577Z,99755.31
2023-03-07T22:55:20.089Z,99743.16
2023-03-07T22:57:25.928Z,99742.47
2023-03-07T22:59:28.261Z,99738.16
2023-03-07T23:01:30.516Z,99728.03
2023-03-07T23:03:32.435Z,99722.09
2023-03-07T23:05:36.428Z,99725.72
2023-03-07T23:07:38.573Z,99718.78
2023-03-07T23:09:40.697Z,99707.94
2023-03-07T23:12:53.933Z,99705.25
2023-03-07T23:14:59.274Z,99700.09
2023-03-07T23:17:01.487Z,99692.34
2023-03-07T23:19:03.867Z,99687.16
2023-03-07T23:21:07.387Z,99685.16
2023-03-07T23:23:09.553Z,99678.50
2023-03-07T23:25:12.287Z,99670.88
2023-03-07T23:27:14.142Z,99661.47
2023-03-07T23:29:16.107Z,99645.84
2023-03-07T23:31:21.878Z,99640.56
2023-03-07T23:33:24.451Z,99646.38
2023-03-07T23:35:29.942Z,99649.19
2023-03-07T23:37:31.992Z,99630.88
2023-03-07T23:39:33.868Z,99632.06
2023-03-07T23:41:36.238Z,99628.56
2023-03-07T23:43:38.499Z,99628.41
2023-03-07T23:45:41.046Z,99620.97
2023-03-07T23:47:43.110Z,99622.50
2023-03-07T23:49:45.012Z,99620.91
2023-03-07T23:51:47.003Z,99623.28
2023-03-07T23:53:49.132Z,99616.25
2023-03-07T23:55:51.058Z,99618.22
2023-03-07T23:57:53.195Z,99617.56
2023-03-07T23:59:55.108Z,99612.94
